Maysel, West Virginia
Current Conditions -  °F | °C
As of 6:54 PM on Monday 20 Oct 2014 (Local Time) from KCRW Reporting Station
Broken Clouds Broken Clouds  
Wind Chill: 54°   Ceiling: 9000
Heat Index: 54°   Visibility: 10mi
Dew Point: 48°   Wind: 5mph
Humidity: 80%   Direction: 170°S
Pressure: 29.91"   Gusts: NA
Location:  38.49°N, 81.11°W
Report Text: KCRW 202254Z 17004KT 10SM BKN090 BKN150 12/09 A2991 RMK AO2 SLP131 T01220089
Loading
Personal Weather Stations






























Interactive Weather Map
Tropical Storm Tracking
New forecast layout! Learn more

10-Day Weather Forecast

Advertisements
Track Severe Weather on mobile